Startpagina
METAR-TAF:

METAR-TAF

Vliegvelden :

Luchthaven Wrocław-Copernicus

Wrocław, Polen

breedte: 51-06N, lengte: 016-53E, hoogte: 120 m

Actueel weer

Dit bericht is 22 minuten geleden gemaakt, om 07:30 UTC
Wind 10 kt uit het westnoordwesten
Temperatuur 15°C
Vochtigheid 88%
Druk 1012 hPa
Zicht 10 km of meer
Gebroken wolken op 1000 ft
Geheel bewolkt op 1300 ft

METAR: EPWR 170730Z 29010KT 9999 BKN010 OVC013 15/13 Q1012

Tijdstip: 09:52 (07:52 UTC)

Verwachting

Dit bericht is 2 uur en het 22 minuten geleden gemaakt, om 05:30 UTC
Verwachting geldig van 17 om 06 UTC tot 18 om 06 UTC
Wind 10 kt uit het westnoordwesten
Zicht 10 km of meer
geen wolken onder 1500 m en geen cumulonimbus
Kans 40% :
Tijdelijke
van 17 om 06 UTC tot 17 om 09 UTC
Gebroken wolken op 1200 ft
Tijdelijke
van 17 om 09 UTC tot 17 om 16 UTC
Wind 15 kt uit het westnoordwesten met uitschieters tot 25 kt
Gebroken wolken op 2500 ft, Stapelwolken.

TAF: EPWR 170530Z 1706/1806 29010KT CAVOK PROB40 TEMPO 1706/1709 BKN012 TEMPO 1709/1716 30015G25KT BKN025TCU

Waarnemingen en weersverwachtingen van meer dan 4000 vliegvelden (METAR en TAF).

De beschikbare stations zijn de gele en rode punten op de kaart.

Ga met uw muis naar het station om de naam te zien.

Klik dan om waarnemingen en weersverwachtingen te zien.

kaart wijzigen: klik op de groene knoppen met een zwart kruis om in te zoomen, op de groene knop met een streepje om uit te zoomen of op de groene pijlen voor aangrenzende kaarten.


METAR-TAF: